Buoy 41580

sailwx.info

Track history (hours):
 
Tides and Currents Weather Stations Pressure Air Temp Water Temp Dewpoint Dewpoint Depression Visibility Wind Speed Wind Dir Waves Ship Positions

Drifting buoy 41580

Last reported at 2014-Dec-20 21:00 UTC. Time now 2014-Dec-20 23:42 UTC.
Position N 16°35' W 041°50'.

Barometer 1016.6 mb
Water temperature 25.9 ° C

Date/timePositionNaut miles runAvg speedWind from/ knotsBaromVisibWave heightAir tempDewpointWater temp
2014-Dec-20 21:00N 16°35' W 041°50'0 0.0 1016.6 25.9
2014-Dec-20 20:00N 16°35' W 041°50'1 0.7 1015.8 26.0
2014-Dec-20 19:00N 16°35' W 041°50'0 0.0 1015.4 26.0
2014-Dec-20 18:00N 16°35' W 041°50'0 0.0 1015.4 26.1
2014-Dec-20 17:00N 16°35' W 041°50'2 0.9 1015.7 26.1
2014-Dec-20 15:00N 16°36' W 041°49'1 0.3 1017.1 26.0
2014-Dec-20 12:00N 16°36' W 041°50'0 0.0 1018.0 25.9
2014-Dec-20 11:00N 16°36' W 041°50'0 0.0 1017.4 25.9
2014-Dec-20 10:00N 16°36' W 041°50'0 0.0 1016.8 25.8
2014-Dec-20 09:00N 16°36' W 041°50'1 0.2 1016.0 25.9
2014-Dec-20 06:00N 16°36' W 041°49'0 0.0 1015.2 25.9
2014-Dec-20 05:00N 16°36' W 041°49'1 0.8 1015.8 25.9
2014-Dec-20 04:00N 16°37' W 041°49'1 1.4 1016.4 25.9
2014-Dec-20 03:00N 16°36' W 041°51'3 0.9 1016.9 25.9
2014-Dec-20 00:00N 16°37' W 041°48'1 0.6 1017.2 25.9
2014-Dec-19 23:00N 16°37' W 041°49'0 0.0 1016.8 26.0
2014-Dec-19 22:00N 16°37' W 041°49'0 0.0 1016.2 26.0
2014-Dec-19 20:00N 16°37' W 041°49'1 0.1 1014.8 26.1
2014-Dec-19 16:00N 16°37' W 041°48'1 1.4 1014.9 26.1
2014-Dec-19 15:00N 16°38' W 041°48'1 0.4 1015.4 26.0
2014-Dec-19 12:00N 16°40' W 041°48'0 0.0 1015.9 25.9
2014-Dec-19 09:00N 16°40' W 041°48'1 0.7 1014.4 25.9
2014-Dec-19 08:00N 16°40' W 041°48'0 0.0 1014.1 25.9
2014-Dec-19 07:00N 16°40' W 041°48'0 0.2 1014.1 25.9
2014-Dec-19 06:00N 16°40' W 041°48'1 0.6 1014.1 25.9
2014-Dec-19 04:00N 16°41' W 041°49'0 0.0 1014.9 25.9
2014-Dec-19 03:00N 16°41' W 041°49'2 0.7 1015.5 25.9
2014-Dec-19 00:00N 16°42' W 041°48'0 0.1 1016.4 25.9
2014-Dec-18 20:00N 16°42' W 041°48'1 0.5 1014.2 26.0
2014-Dec-18 19:00N 16°42' W 041°48'0 0.2 1013.8 26.1
2014-Dec-18 17:00N 16°43' W 041°48'2 2.1 1013.9 26.1
2014-Dec-18 16:00N 16°45' W 041°47'2 2.0 1014.5 26.0
2014-Dec-18 15:00N 16°43' W 041°48'2 0.9 1015.2 26.0
2014-Dec-18 13:00N 16°44' W 041°47'1 1.0 1015.9 25.9
2014-Dec-18 12:00N 16°45' W 041°47'1 0.4 1016.0 25.9
2014-Dec-18 09:00N 16°45' W 041°46'1 0.8 1014.2 25.9
2014-Dec-18 08:00N 16°46' W 041°47'0 0.0 1014.1 25.9
2014-Dec-18 07:00N 16°46' W 041°47'2 1.9 1014.2 25.9
2014-Dec-18 06:00N 16°48' W 041°47'2 1.7 1014.6 25.9
2014-Dec-18 05:00N 16°46' W 041°47'2 1.7 1015.0 25.9
2014-Dec-18 04:00N 16°48' W 041°47'0 0.0 1015.7 25.9
2014-Dec-18 03:00N 16°48' W 041°47'2 0.5 1015.8 25.9
2014-Dec-18 00:00N 16°49' W 041°46'0 0.0 1016.6 25.9
2014-Dec-17 23:00N 16°49' W 041°46'1 0.4 1016.1 25.9
2014-Dec-17 21:00N 16°50' W 041°47'1 0.4 1015.0 26.0
2014-Dec-17 18:00N 16°51' W 041°46'0 0.0 1014.0 26.0
2014-Dec-17 17:00N 16°51' W 041°46'2 1.6 1014.3 26.0
2014-Dec-17 16:00N 16°52' W 041°46'1 0.4 1015.3 26.0
2014-Dec-17 13:00N 16°53' W 041°47'1 0.7 1017.9 25.9
2014-Dec-17 12:00N 16°53' W 041°46'1 0.7 1018.0 25.9
2014-Dec-17 11:00N 16°53' W 041°46'0 0.0 1017.7 25.9
2014-Dec-17 09:00N 16°53' W 041°46'1 1.2 1016.8 25.9
2014-Dec-17 08:00N 16°54' W 041°45'1 0.5 1016.6 25.9
2014-Dec-17 06:00N 16°55' W 041°46'3 3.2 1016.5 25.9
2014-Dec-17 05:00N 16°57' W 041°44'0 0.0 1017.0 25.9
2014-Dec-17 00:00N 16°57' W 041°44'2 0.9 1018.6 25.9
2014-Dec-16 22:00N 16°58' W 041°43'0 0.0 1017.9 25.9
2014-Dec-16 21:00N 16°58' W 041°43'1 0.7 1017.3 25.9
2014-Dec-16 20:00N 16°59' W 041°42'1 0.3 1016.8 26.0
2014-Dec-16 18:00N 16°59' W 041°43'4 0.2 1016.3 26.0
2014-Dec-15 23:00N 17°03' W 041°43'1 0.4 1018.5 26.0
2014-Dec-15 20:00N 17°03' W 041°41'0 0.0 1016.9 26.0
2014-Dec-15 19:00N 17°03' W 041°41'1 0.6 1016.3 26.0
2014-Dec-15 18:00N 17°03' W 041°41'0 0.0 1016.1 26.0
2014-Dec-15 17:00N 17°03' W 041°41'0 0.0 1016.3 26.0
2014-Dec-15 16:00N 17°03' W 041°41'1 0.2 1016.6 26.0
2014-Dec-15 12:00N 17°04' W 041°40'0 0.0 1018.0 26.0
2014-Dec-15 11:00N 17°04' W 041°40'0 0.0 1017.6 25.9
2014-Dec-15 10:00N 17°04' W 041°40'0 0.0 1017.0 25.9
2014-Dec-15 08:00N 17°04' W 041°40'1 0.8 1015.7 25.9
2014-Dec-15 07:00N 17°04' W 041°40'1 0.8 1015.3 25.9
2014-Dec-15 06:00N 17°05' W 041°39'0 0.0 1015.3 25.9
2014-Dec-15 05:00N 17°05' W 041°39'1 0.6 1015.7 26.0
2014-Dec-15 04:00N 17°05' W 041°39'1 0.6 1016.1 26.0
2014-Dec-15 03:00N 17°05' W 041°40'1 0.2 1016.2 26.0
2014-Dec-15 00:00N 17°06' W 041°40'1 1.3 1017.1 26.0
2014-Dec-14 23:00N 17°05' W 041°38'2 1.7 1016.9 26.0
2014-Dec-14 22:00N 17°07' W 041°40'0 0.0 1016.4 26.0
2014-Dec-14 21:00N 17°07' W 041°40'0 0.0 1015.8 26.0
2014-Dec-14 20:00N 17°07' W 041°40'0 0.0 1015.2 26.0
2014-Dec-14 19:00N 17°07' W 041°40'0 0.0 1014.8 26.0
2014-Dec-14 18:00N 17°07' W 041°40'1 0.7 1014.7 26.0
2014-Dec-14 16:00N 17°08' W 041°39'2 1.9 1015.0 26.0
2014-Dec-14 15:00N 17°10' W 041°40'1 0.3 1015.7 26.0
2014-Dec-14 12:00N 17°10' W 041°40'0 0.0 1016.4 26.0
2014-Dec-14 11:00N 17°10' W 041°40'0 0.0 1016.1 26.0
2014-Dec-14 09:00N 17°10' W 041°40'1 0.4 1014.7 26.0
2014-Dec-14 07:00N 17°11' W 041°40'1 0.6 1014.1 26.0
2014-Dec-14 06:00N 17°11' W 041°40'0 0.0 1014.2 26.0
2014-Dec-14 05:00N 17°11' W 041°40'1 1.3 1014.4 26.0
2014-Dec-14 04:00N 17°13' W 041°40'0 0.0 1015.3 26.0
2014-Dec-14 03:00N 17°13' W 041°40'1 0.6 1015.5 26.0
2014-Dec-14 01:00N 17°14' W 041°40'0 0.0 1016.0 26.0
2014-Dec-14 00:00N 17°14' W 041°40'1 1.3 1016.0 26.0
2014-Dec-13 23:00N 17°14' W 041°39'12 0.5 1015.7 26.1
2014-Dec-12 22:00N 17°26' W 041°36'1 0.2 1015.1 26.0
2014-Dec-12 19:00N 17°26' W 041°37'1 0.6 1013.6 26.0
2014-Dec-12 18:00N 17°26' W 041°36'2 0.2 1013.8 26.1
2014-Dec-12 08:00N 17°28' W 041°34'1 0.4 1014.4 26.0
2014-Dec-12 04:00N 17°29' W 041°33'2 0.6 1015.5 26.0
2014-Dec-12 00:00N 17°31' W 041°32'0 0.0 1016.5 26.1
2014-Dec-11 21:00N 17°31' W 041°32'1 0.6 1015.3 26.1
2014-Dec-11 19:00N 17°32' W 041°32'1 0.3 1015.0 26.2
2014-Dec-11 17:00N 17°33' W 041°32'1 0.3 1014.9 26.2
2014-Dec-11 15:00N 17°33' W 041°32'1 0.5 1016.3 26.2
2014-Dec-11 13:00N 17°34' W 041°33'0 0.3 1017.7 26.1
2014-Dec-11 12:00N 17°34' W 041°33'0 0.2 1017.6 26.0
2014-Dec-11 11:00N 17°34' W 041°33'0 0.0 1017.3 26.0
2014-Dec-11 09:00N 17°34' W 041°33'1 1.0 1015.4 26.0
2014-Dec-11 08:00N 17°34' W 041°32'1 1.4 1015.3 26.0
2014-Dec-11 07:00N 17°35' W 041°33'1 1.4 1015.5 26.0
2014-Dec-11 06:00N 17°36' W 041°35'0 0.0 1015.8 26.0
2014-Dec-11 05:00N 17°36' W 041°35'0 0.0 1016.2 26.0
2014-Dec-11 04:00N 17°36' W 041°35'1 0.2 1016.8 26.0
2014-Dec-11 00:00N 17°35' W 041°34'2 0.8 1017.5 26.1
2014-Dec-10 22:00N 17°36' W 041°33'   1016.4 26.1
Track history (hours):
 
Tides and Currents Weather Stations Pressure Air Temp Water Temp Dewpoint Dewpoint Depression Visibility Wind Speed Wind Dir Waves Ship Positions

Drifting buoy 41580

Last reported at 2014-Dec-20 21:00 UTC. Time now 2014-Dec-20 23:42 UTC.
Position N 16°35' W 041°50'.

Barometer 1016.6 mb
Water temperature 25.9 ° C

Date/timePositionNaut miles runAvg speedWind from/ knotsBaromVisibWave heightAir tempDewpointWater temp
2014-Dec-20 21:00N 16°35' W 041°50'0 0.0 1016.6 25.9
2014-Dec-20 20:00N 16°35' W 041°50'1 0.7 1015.8 26.0
2014-Dec-20 19:00N 16°35' W 041°50'0 0.0 1015.4 26.0
2014-Dec-20 18:00N 16°35' W 041°50'0 0.0 1015.4 26.1
2014-Dec-20 17:00N 16°35' W 041°50'2 0.9 1015.7 26.1
2014-Dec-20 15:00N 16°36' W 041°49'1 0.3 1017.1 26.0
2014-Dec-20 12:00N 16°36' W 041°50'0 0.0 1018.0 25.9
2014-Dec-20 11:00N 16°36' W 041°50'0 0.0 1017.4 25.9
2014-Dec-20 10:00N 16°36' W 041°50'0 0.0 1016.8 25.8
2014-Dec-20 09:00N 16°36' W 041°50'1 0.2 1016.0 25.9
2014-Dec-20 06:00N 16°36' W 041°49'0 0.0 1015.2 25.9
2014-Dec-20 05:00N 16°36' W 041°49'1 0.8 1015.8 25.9
2014-Dec-20 04:00N 16°37' W 041°49'1 1.4 1016.4 25.9
2014-Dec-20 03:00N 16°36' W 041°51'3 0.9 1016.9 25.9
2014-Dec-20 00:00N 16°37' W 041°48'1 0.6 1017.2 25.9
2014-Dec-19 23:00N 16°37' W 041°49'0 0.0 1016.8 26.0
2014-Dec-19 22:00N 16°37' W 041°49'0 0.0 1016.2 26.0
2014-Dec-19 20:00N 16°37' W 041°49'1 0.1 1014.8 26.1
2014-Dec-19 16:00N 16°37' W 041°48'1 1.4 1014.9 26.1
2014-Dec-19 15:00N 16°38' W 041°48'1 0.4 1015.4 26.0
2014-Dec-19 12:00N 16°40' W 041°48'0 0.0 1015.9 25.9
2014-Dec-19 09:00N 16°40' W 041°48'1 0.7 1014.4 25.9
2014-Dec-19 08:00N 16°40' W 041°48'0 0.0 1014.1 25.9
2014-Dec-19 07:00N 16°40' W 041°48'0 0.2 1014.1 25.9
2014-Dec-19 06:00N 16°40' W 041°48'1 0.6 1014.1 25.9
2014-Dec-19 04:00N 16°41' W 041°49'0 0.0 1014.9 25.9
2014-Dec-19 03:00N 16°41' W 041°49'2 0.7 1015.5 25.9
2014-Dec-19 00:00N 16°42' W 041°48'0 0.1 1016.4 25.9
2014-Dec-18 20:00N 16°42' W 041°48'1 0.5 1014.2 26.0
2014-Dec-18 19:00N 16°42' W 041°48'0 0.2 1013.8 26.1
2014-Dec-18 17:00N 16°43' W 041°48'2 2.1 1013.9 26.1
2014-Dec-18 16:00N 16°45' W 041°47'2 2.0 1014.5 26.0
2014-Dec-18 15:00N 16°43' W 041°48'2 0.9 1015.2 26.0
2014-Dec-18 13:00N 16°44' W 041°47'1 1.0 1015.9 25.9
2014-Dec-18 12:00N 16°45' W 041°47'1 0.4 1016.0 25.9
2014-Dec-18 09:00N 16°45' W 041°46'1 0.8 1014.2 25.9
2014-Dec-18 08:00N 16°46' W 041°47'0 0.0 1014.1 25.9
2014-Dec-18 07:00N 16°46' W 041°47'2 1.9 1014.2 25.9
2014-Dec-18 06:00N 16°48' W 041°47'2 1.7 1014.6 25.9
2014-Dec-18 05:00N 16°46' W 041°47'2 1.7 1015.0 25.9
2014-Dec-18 04:00N 16°48' W 041°47'0 0.0 1015.7 25.9
2014-Dec-18 03:00N 16°48' W 041°47'2 0.5 1015.8 25.9
2014-Dec-18 00:00N 16°49' W 041°46'0 0.0 1016.6 25.9
2014-Dec-17 23:00N 16°49' W 041°46'1 0.4 1016.1 25.9
2014-Dec-17 21:00N 16°50' W 041°47'1 0.4 1015.0 26.0
2014-Dec-17 18:00N 16°51' W 041°46'0 0.0 1014.0 26.0
2014-Dec-17 17:00N 16°51' W 041°46'2 1.6 1014.3 26.0
2014-Dec-17 16:00N 16°52' W 041°46'1 0.4 1015.3 26.0
2014-Dec-17 13:00N 16°53' W 041°47'1 0.7 1017.9 25.9
2014-Dec-17 12:00N 16°53' W 041°46'1 0.7 1018.0 25.9
2014-Dec-17 11:00N 16°53' W 041°46'0 0.0 1017.7 25.9
2014-Dec-17 09:00N 16°53' W 041°46'1 1.2 1016.8 25.9
2014-Dec-17 08:00N 16°54' W 041°45'1 0.5 1016.6 25.9
2014-Dec-17 06:00N 16°55' W 041°46'3 3.2 1016.5 25.9
2014-Dec-17 05:00N 16°57' W 041°44'0 0.0 1017.0 25.9
2014-Dec-17 00:00N 16°57' W 041°44'2 0.9 1018.6 25.9
2014-Dec-16 22:00N 16°58' W 041°43'0 0.0 1017.9 25.9
2014-Dec-16 21:00N 16°58' W 041°43'1 0.7 1017.3 25.9
2014-Dec-16 20:00N 16°59' W 041°42'1 0.3 1016.8 26.0
2014-Dec-16 18:00N 16°59' W 041°43'4 0.2 1016.3 26.0
2014-Dec-15 23:00N 17°03' W 041°43'1 0.4 1018.5 26.0
2014-Dec-15 20:00N 17°03' W 041°41'0 0.0 1016.9 26.0
2014-Dec-15 19:00N 17°03' W 041°41'1 0.6 1016.3 26.0
2014-Dec-15 18:00N 17°03' W 041°41'0 0.0 1016.1 26.0
2014-Dec-15 17:00N 17°03' W 041°41'0 0.0 1016.3 26.0
2014-Dec-15 16:00N 17°03' W 041°41'1 0.2 1016.6 26.0
2014-Dec-15 12:00N 17°04' W 041°40'0 0.0 1018.0 26.0
2014-Dec-15 11:00N 17°04' W 041°40'0 0.0 1017.6 25.9
2014-Dec-15 10:00N 17°04' W 041°40'0 0.0 1017.0 25.9
2014-Dec-15 08:00N 17°04' W 041°40'1 0.8 1015.7 25.9
2014-Dec-15 07:00N 17°04' W 041°40'1 0.8 1015.3 25.9
2014-Dec-15 06:00N 17°05' W 041°39'0 0.0 1015.3 25.9
2014-Dec-15 05:00N 17°05' W 041°39'1 0.6 1015.7 26.0
2014-Dec-15 04:00N 17°05' W 041°39'1 0.6 1016.1 26.0
2014-Dec-15 03:00N 17°05' W 041°40'1 0.2 1016.2 26.0
2014-Dec-15 00:00N 17°06' W 041°40'1 1.3 1017.1 26.0
2014-Dec-14 23:00N 17°05' W 041°38'2 1.7 1016.9 26.0
2014-Dec-14 22:00N 17°07' W 041°40'0 0.0 1016.4 26.0
2014-Dec-14 21:00N 17°07' W 041°40'0 0.0 1015.8 26.0
2014-Dec-14 20:00N 17°07' W 041°40'0 0.0 1015.2 26.0
2014-Dec-14 19:00N 17°07' W 041°40'0 0.0 1014.8 26.0
2014-Dec-14 18:00N 17°07' W 041°40'1 0.7 1014.7 26.0
2014-Dec-14 16:00N 17°08' W 041°39'2 1.9 1015.0 26.0
2014-Dec-14 15:00N 17°10' W 041°40'1 0.3 1015.7 26.0
2014-Dec-14 12:00N 17°10' W 041°40'0 0.0 1016.4 26.0
2014-Dec-14 11:00N 17°10' W 041°40'0 0.0 1016.1 26.0
2014-Dec-14 09:00N 17°10' W 041°40'1 0.4 1014.7 26.0
2014-Dec-14 07:00N 17°11' W 041°40'1 0.6 1014.1 26.0
2014-Dec-14 06:00N 17°11' W 041°40'0 0.0 1014.2 26.0
2014-Dec-14 05:00N 17°11' W 041°40'1 1.3 1014.4 26.0
2014-Dec-14 04:00N 17°13' W 041°40'0 0.0 1015.3 26.0
2014-Dec-14 03:00N 17°13' W 041°40'1 0.6 1015.5 26.0
2014-Dec-14 01:00N 17°14' W 041°40'0 0.0 1016.0 26.0
2014-Dec-14 00:00N 17°14' W 041°40'1 1.3 1016.0 26.0
2014-Dec-13 23:00N 17°14' W 041°39'12 0.5 1015.7 26.1
2014-Dec-12 22:00N 17°26' W 041°36'1 0.2 1015.1 26.0
2014-Dec-12 19:00N 17°26' W 041°37'1 0.6 1013.6 26.0
2014-Dec-12 18:00N 17°26' W 041°36'2 0.2 1013.8 26.1
2014-Dec-12 08:00N 17°28' W 041°34'1 0.4 1014.4 26.0
2014-Dec-12 04:00N 17°29' W 041°33'2 0.6 1015.5 26.0
2014-Dec-12 00:00N 17°31' W 041°32'0 0.0 1016.5 26.1
2014-Dec-11 21:00N 17°31' W 041°32'1 0.6 1015.3 26.1
2014-Dec-11 19:00N 17°32' W 041°32'1 0.3 1015.0 26.2
2014-Dec-11 17:00N 17°33' W 041°32'1 0.3 1014.9 26.2
2014-Dec-11 15:00N 17°33' W 041°32'1 0.5 1016.3 26.2
2014-Dec-11 13:00N 17°34' W 041°33'0 0.3 1017.7 26.1
2014-Dec-11 12:00N 17°34' W 041°33'0 0.2 1017.6 26.0
2014-Dec-11 11:00N 17°34' W 041°33'0 0.0 1017.3 26.0
2014-Dec-11 09:00N 17°34' W 041°33'1 1.0 1015.4 26.0
2014-Dec-11 08:00N 17°34' W 041°32'1 1.4 1015.3 26.0
2014-Dec-11 07:00N 17°35' W 041°33'1 1.4 1015.5 26.0
2014-Dec-11 06:00N 17°36' W 041°35'0 0.0 1015.8 26.0
2014-Dec-11 05:00N 17°36' W 041°35'0 0.0 1016.2 26.0
2014-Dec-11 04:00N 17°36' W 041°35'1 0.2 1016.8 26.0
2014-Dec-11 00:00N 17°35' W 041°34'2 0.8 1017.5 26.1
2014-Dec-10 22:00N 17°36' W 041°33'   1016.4 26.1

Dump ship's entire track history